Hovedside
METAR-TAF:

METAR-TAF

Lufthavner :

Örebro, Sverige

breddegrad: 59-14N, lengdegrad: 015-03E, høyde over havet: 57 m

Gjeldene værobservasjon

Denne rapporten ble laget for 23 minutter siden, klokken 18:20 UTC
Vind 10 kt fra Nordøst
Temperatur 12°C
Luftfuktighet 94%
Trykk 1024 hPa
Sikt: 3900 m
Spredte skyer i en høyde av 300 ft
Brutte skyer i en høyde av 600 ft
dis

METAR: ESOE 221820Z 05010KT 3900 BR SCT003 BKN006 12/11 Q1024

Tid: 20:43 (18:43 UTC)

Varsel

Denne rapporten ble laget for 1 time og 13 minutter siden, klokken 17:30 UTC
Varsel gyldig fra 22. klokken 18 UTC til 22. klokken 21 UTC
Vind 8 kt fra Nordøst
Sikt 10 km eller mer
Brutte skyer i en høyde av 800 ft
Sannsynlighet 40%
fra 22. klokken 18 UTC til 22. klokken 21 UTC
Sikt: 4000 m
Brutte skyer i en høyde av 400 ft
duskregn, dis

TAF: ESOE 221730Z 2218/2221 05008KT 9999 BKN008 PROB40 2218/2221 4000 DZ BR BKN004

Værobservasjoner og værvarsel for over 4000 flyplasser (METAR- og TAF-rapporter).

Tilgjengelige stasjoner er representert av de røde og gule prikkene på kartet.

Hold musepekeren over prikken for å se navnet på stasjonen.

Klikk så for å se værobservasjoner og -varsler.

For å forandre kartet kan du klikke på den grønne knappen med svart kryss for å zoome inn, på den grønne knappen med strek for å zoome ut, eller på de grønne pilene for å se tilstøtende kart.


METAR-TAF: